createdAt,value
2022-08-09T00:00:00.153Z,62.28
2022-08-09T00:02:27.042Z,61.56
2022-08-09T00:05:03.664Z,61.91
2022-08-09T00:07:44.477Z,63.05
2022-08-09T00:10:14.340Z,63.12
2022-08-09T00:12:52.450Z,62.69
2022-08-09T00:15:26.378Z,63.94
2022-08-09T00:18:09.413Z,65.31
2022-08-09T00:20:42.268Z,65.04
2022-08-09T00:23:54.570Z,64.67
2022-08-09T00:26:10.897Z,64.27
2022-08-09T00:28:38.396Z,64.25
2022-08-09T00:31:30.658Z,64.05
2022-08-09T00:33:53.712Z,64.56
2022-08-09T00:36:22.293Z,65.83
2022-08-09T00:38:53.983Z,64.79
2022-08-09T00:44:11.855Z,63.45
2022-08-09T00:44:20.159Z,64.83
2022-08-09T00:46:57.600Z,63.65
2022-08-09T00:49:31.482Z,71.48
2022-08-09T00:52:02.032Z,72.83
2022-08-09T00:54:36.009Z,70.89
2022-08-09T00:57:10.208Z,72.04
2022-08-09T00:59:46.909Z,71.95
2022-08-09T01:02:22.225Z,73.36
2022-08-09T01:05:00.794Z,73.50
2022-08-09T01:08:01.443Z,75.20
2022-08-09T01:10:39.436Z,78.66
2022-08-09T01:13:41.955Z,82.55
2022-08-09T01:16:24.136Z,79.52
2022-08-09T01:19:02.038Z,78.89
2022-08-09T01:21:53.683Z,83.08
2022-08-09T01:24:35.016Z,84.93
2022-08-09T01:27:13.272Z,85.58
2022-08-09T01:29:57.625Z,86.27
2022-08-09T01:32:34.861Z,87.65
2022-08-09T01:35:29.160Z,87.97
2022-08-09T01:38:08.461Z,83.99
2022-08-09T01:40:45.101Z,75.51
2022-08-09T01:43:21.006Z,84.79
2022-08-09T01:45:53.587Z,85.47
2022-08-09T01:48:29.600Z,87.80
2022-08-09T01:50:59.255Z,89.08
2022-08-09T01:53:28.950Z,86.89
2022-08-09T01:55:57.217Z,86.52
2022-08-09T01:58:25.685Z,86.34
2022-08-09T02:00:57.234Z,87.43
2022-08-09T02:03:25.269Z,86.87
2022-08-09T02:06:06.449Z,85.39
2022-08-09T02:08:57.254Z,86.28
2022-08-09T02:11:42.126Z,85.71
2022-08-09T02:14:15.870Z,85.19
2022-08-09T02:17:00.011Z,84.85
2022-08-09T02:19:43.077Z,85.24
2022-08-09T02:22:40.773Z,85.23
2022-08-09T02:25:42.346Z,84.92
2022-08-09T02:28:20.220Z,83.34
2022-08-09T02:30:51.914Z,80.75
2022-08-09T02:33:37.772Z,82.34
2022-08-09T02:36:10.559Z,78.78
2022-08-09T02:38:47.696Z,78.52
2022-08-09T02:41:21.255Z,80.08
2022-08-09T02:43:54.784Z,79.87
2022-08-09T02:46:25.478Z,77.14
2022-08-09T02:48:57.159Z,75.88
2022-08-09T02:51:26.544Z,77.02
2022-08-09T02:54:00.928Z,77.77
2022-08-09T02:56:31.756Z,80.26
2022-08-09T02:59:01.675Z,79.50
2022-08-09T03:01:43.356Z,79.98
2022-08-09T03:04:19.795Z,78.12
2022-08-09T03:06:48.946Z,76.75
2022-08-09T03:09:16.492Z,76.97
2022-08-09T03:12:05.874Z,77.20
2022-08-09T03:14:32.905Z,77.43
2022-08-09T03:17:01.772Z,77.73
2022-08-09T03:19:59.455Z,77.07
2022-08-09T03:22:25.689Z,78.22
2022-08-09T03:25:21.972Z,77.97
2022-08-09T03:27:48.660Z,77.82
2022-08-09T03:30:29.832Z,79.86
2022-08-09T03:33:11.094Z,79.70
2022-08-09T03:36:12.491Z,80.25
2022-08-09T03:38:31.658Z,78.87
2022-08-09T03:40:58.472Z,77.68
2022-08-09T03:43:31.643Z,78.27
2022-08-09T03:46:04.165Z,75.78
2022-08-09T03:48:53.730Z,79.29
2022-08-09T03:51:43.638Z,77.66
2022-08-09T03:54:11.605Z,75.71
2022-08-09T03:56:41.219Z,76.53
2022-08-09T03:59:13.507Z,76.82
2022-08-09T04:01:44.690Z,75.70
2022-08-09T04:04:14.750Z,77.00
2022-08-09T04:06:44.053Z,77.81
2022-08-09T04:09:48.093Z,77.08
2022-08-09T04:12:12.074Z,77.58
2022-08-09T04:15:02.147Z,77.44
2022-08-09T04:17:39.383Z,75.18
2022-08-09T04:20:11.603Z,76.86
2022-08-09T04:22:41.311Z,78.22
2022-08-09T04:25:11.813Z,77.84
2022-08-09T04:27:48.840Z,79.13
2022-08-09T04:30:20.864Z,79.57
2022-08-09T04:32:50.358Z,79.48
2022-08-09T04:35:17.152Z,78.87
2022-08-09T04:37:46.262Z,78.24
2022-08-09T04:40:28.596Z,78.81
2022-08-09T04:43:00.812Z,79.09
2022-08-09T04:45:30.472Z,78.36
2022-08-09T04:48:04.038Z,80.04
2022-08-09T04:50:37.735Z,80.09
2022-08-09T04:53:11.621Z,73.28
2022-08-09T04:55:57.721Z,72.93
2022-08-09T04:58:25.693Z,74.71
2022-08-09T05:00:54.425Z,75.53
2022-08-09T05:03:40.208Z,77.18
2022-08-09T05:06:09.901Z,73.80
2022-08-09T05:08:38.334Z,71.62
2022-08-09T05:11:06.783Z,73.33
2022-08-09T05:13:38.818Z,77.32
2022-08-09T05:16:06.099Z,79.20
2022-08-09T05:18:50.702Z,78.92
2022-08-09T05:21:24.736Z,77.94
2022-08-09T05:23:59.988Z,76.52
2022-08-09T05:26:36.292Z,75.30
2022-08-09T05:29:04.913Z,76.54
2022-08-09T05:31:44.176Z,76.13
2022-08-09T05:34:16.827Z,73.62
2022-08-09T05:36:44.068Z,73.12
2022-08-09T05:39:14.365Z,73.22
2022-08-09T05:41:55.865Z,73.71
2022-08-09T05:44:29.092Z,74.24
2022-08-09T05:46:59.448Z,73.45
2022-08-09T05:49:33.832Z,72.51
2022-08-09T05:52:12.592Z,72.96
2022-08-09T05:54:40.235Z,72.65
2022-08-09T05:57:07.752Z,71.72
2022-08-09T05:59:39.797Z,71.56
2022-08-09T06:02:09.166Z,69.62
2022-08-09T06:04:36.834Z,66.48
2022-08-09T06:07:11.502Z,64.67
2022-08-09T06:09:54.483Z,67.35
2022-08-09T06:12:29.451Z,66.58
2022-08-09T06:15:01.021Z,67.70
2022-08-09T06:17:39.875Z,68.62
2022-08-09T06:20:07.978Z,71.02
2022-08-09T06:22:35.040Z,69.79
2022-08-09T06:25:01.861Z,69.13
2022-08-09T06:27:42.624Z,68.90
2022-08-09T06:30:10.604Z,67.53
2022-08-09T06:32:59.134Z,67.18
2022-08-09T06:35:56.059Z,68.03
2022-08-09T06:38:15.950Z,67.64
2022-08-09T06:40:43.147Z,69.69
2022-08-09T06:43:10.546Z,68.84
2022-08-09T06:46:04.662Z,64.22
2022-08-09T06:48:26.165Z,67.34
2022-08-09T06:50:58.460Z,67.05
2022-08-09T06:53:25.173Z,66.08
2022-08-09T06:55:52.636Z,65.48
2022-08-09T07:00:47.718Z,65.42
2022-08-09T07:01:06.382Z,65.03
2022-08-09T07:03:39.764Z,64.64
2022-08-09T07:06:19.603Z,65.01
2022-08-09T07:08:46.724Z,63.03
2022-08-09T07:11:23.424Z,60.18
2022-08-09T07:14:04.895Z,59.60
2022-08-09T07:16:42.046Z,58.28
2022-08-09T07:19:22.980Z,57.25
2022-08-09T07:21:57.303Z,57.94
2022-08-09T07:24:32.624Z,54.31
2022-08-09T07:27:11.146Z,55.41
2022-08-09T07:29:57.139Z,54.90
2022-08-09T07:32:33.107Z,55.10
2022-08-09T07:35:10.366Z,55.41
2022-08-09T07:37:43.370Z,55.19
2022-08-09T07:40:16.977Z,52.54
2022-08-09T07:43:02.617Z,52.53
2022-08-09T07:45:39.813Z,51.10
2022-08-09T07:48:28.365Z,51.06
2022-08-09T07:51:09.601Z,52.33
2022-08-09T07:54:05.798Z,55.44
2022-08-09T07:56:34.054Z,55.28
2022-08-09T07:59:00.664Z,55.83
2022-08-09T08:01:32.966Z,55.03
2022-08-09T08:04:01.194Z,54.25
2022-08-09T08:06:31.676Z,55.03
2022-08-09T08:09:04.863Z,53.92
2022-08-09T08:12:24.876Z,50.99
2022-08-09T08:14:18.803Z,51.57
2022-08-09T08:17:00.811Z,51.42
2022-08-09T08:19:34.754Z,51.58
2022-08-09T08:22:01.710Z,50.06
2022-08-09T08:24:39.896Z,50.04
2022-08-09T08:27:07.228Z,49.23
2022-08-09T08:29:48.535Z,48.39
2022-08-09T08:32:24.314Z,48.64
2022-08-09T08:34:58.877Z,48.57
2022-08-09T08:37:41.689Z,48.86
2022-08-09T08:40:14.380Z,48.66
2022-08-09T08:42:47.048Z,49.74
2022-08-09T08:45:16.593Z,50.22
2022-08-09T08:47:45.765Z,49.74
2022-08-09T08:50:18.093Z,49.81
2022-08-09T08:52:57.532Z,48.79
2022-08-09T08:55:26.777Z,47.59
2022-08-09T08:57:56.750Z,46.77
2022-08-09T09:00:27.713Z,46.42
2022-08-09T09:03:08.180Z,46.63
2022-08-09T09:05:59.636Z,45.74
2022-08-09T09:08:30.562Z,45.95
2022-08-09T09:11:01.361Z,46.78
2022-08-09T09:13:41.615Z,46.60
2022-08-09T09:16:13.905Z,46.44
2022-08-09T09:18:45.806Z,46.76
2022-08-09T09:21:16.335Z,47.36
2022-08-09T09:23:58.074Z,45.78
2022-08-09T09:26:25.962Z,45.65
2022-08-09T09:29:04.300Z,44.89
2022-08-09T09:32:04.600Z,46.71
2022-08-09T09:34:25.216Z,45.89
2022-08-09T09:36:56.487Z,46.52
2022-08-09T09:39:25.764Z,46.63
2022-08-09T09:42:26.001Z,46.16
2022-08-09T09:45:01.162Z,45.85
2022-08-09T09:47:30.402Z,44.88
2022-08-09T09:50:15.447Z,44.62
2022-08-09T09:52:53.842Z,43.73
2022-08-09T09:55:28.407Z,44.35
2022-08-09T09:58:16.879Z,44.21
2022-08-09T10:00:54.298Z,43.22
2022-08-09T10:03:57.337Z,43.73
2022-08-09T10:06:42.975Z,42.98
2022-08-09T10:09:22.301Z,44.01
2022-08-09T10:12:15.081Z,44.14
2022-08-09T10:14:51.314Z,43.26
2022-08-09T10:17:40.721Z,44.77
2022-08-09T10:20:27.723Z,45.36
2022-08-09T10:23:24.923Z,44.09
2022-08-09T10:26:08.202Z,44.27
2022-08-09T10:28:39.876Z,43.59
2022-08-09T10:34:10.594Z,42.33
2022-08-09T10:36:42.990Z,41.97
2022-08-09T10:39:16.200Z,42.16
2022-08-09T10:41:47.908Z,40.95
2022-08-09T10:44:19.287Z,40.79
2022-08-09T10:48:14.241Z,40.68
2022-08-09T10:50:51.949Z,41.49
2022-08-09T10:53:37.894Z,40.50
2022-08-09T10:56:22.944Z,41.56
2022-08-09T10:58:54.610Z,39.82
2022-08-09T11:03:14.819Z,40.12
2022-08-09T11:04:30.922Z,40.14
2022-08-09T11:07:00.283Z,40.66
2022-08-09T11:09:45.331Z,40.53
2022-08-09T11:12:17.098Z,42.40
2022-08-09T11:14:48.609Z,40.35
2022-08-09T11:17:15.085Z,40.90
2022-08-09T11:20:11.425Z,40.77
2022-08-09T11:22:45.509Z,41.09
2022-08-09T11:25:44.498Z,40.04
2022-08-09T11:28:34.490Z,39.91
2022-08-09T11:31:39.736Z,42.10
2022-08-09T11:34:17.662Z,41.32
2022-08-09T11:36:45.544Z,39.40
2022-08-09T11:39:12.245Z,39.13
2022-08-09T11:41:40.688Z,39.87
2022-08-09T11:44:08.410Z,39.37
2022-08-09T11:46:52.725Z,39.69
2022-08-09T11:49:28.297Z,40.83
2022-08-09T11:52:56.478Z,40.18
2022-08-09T11:55:39.955Z,40.68
2022-08-09T11:58:20.142Z,39.85
2022-08-09T12:01:08.743Z,39.18
2022-08-09T12:03:57.385Z,39.01
2022-08-09T12:06:32.213Z,39.16
2022-08-09T12:09:02.535Z,38.68
2022-08-09T12:11:29.372Z,38.88
2022-08-09T12:14:08.502Z,38.71
2022-08-09T12:16:40.263Z,40.36
2022-08-09T12:19:09.661Z,39.66
2022-08-09T12:21:51.497Z,38.66
2022-08-09T12:24:24.255Z,38.31
2022-08-09T12:28:59.123Z,37.88
2022-08-09T12:30:01.771Z,38.60
2022-08-09T12:32:41.028Z,38.12
2022-08-09T12:35:12.638Z,38.26
2022-08-09T12:37:50.069Z,37.94
2022-08-09T12:40:18.905Z,38.01
2022-08-09T12:42:46.397Z,38.14
2022-08-09T12:45:32.356Z,38.60
2022-08-09T12:48:02.797Z,38.14
2022-08-09T12:50:29.494Z,38.32
2022-08-09T12:53:09.627Z,38.22
2022-08-09T12:56:16.166Z,38.81
2022-08-09T12:58:29.214Z,40.64
2022-08-09T13:00:57.687Z,38.01
2022-08-09T13:03:53.060Z,36.84
2022-08-09T13:06:34.807Z,38.53
2022-08-09T13:09:18.080Z,37.78
2022-08-09T13:11:47.352Z,37.26
2022-08-09T13:14:43.665Z,37.39
2022-08-09T13:17:14.114Z,37.10
2022-08-09T13:20:07.027Z,36.66
2022-08-09T13:23:01.888Z,37.38
2022-08-09T13:25:20.539Z,36.72
2022-08-09T13:27:54.335Z,36.71
2022-08-09T13:31:11.721Z,37.31
2022-08-09T13:33:11.416Z,38.13
2022-08-09T13:36:39.552Z,36.53
2022-08-09T13:38:54.554Z,37.58
2022-08-09T13:41:46.385Z,36.64
2022-08-09T13:43:58.572Z,36.83
2022-08-09T13:47:16.612Z,37.62
2022-08-09T13:49:18.133Z,37.23
2022-08-09T13:51:58.829Z,36.98
2022-08-09T13:54:30.331Z,37.04
2022-08-09T13:56:57.551Z,38.07
2022-08-09T13:59:25.664Z,36.17
2022-08-09T14:02:00.764Z,36.81
2022-08-09T14:04:29.531Z,36.38
2022-08-09T14:07:03.625Z,38.03
2022-08-09T14:09:30.872Z,36.37
2022-08-09T14:12:04.582Z,37.48
2022-08-09T14:14:41.896Z,36.94
2022-08-09T14:17:12.130Z,37.82
2022-08-09T14:19:39.251Z,37.26
2022-08-09T14:22:07.289Z,36.97
2022-08-09T14:24:35.759Z,36.97
2022-08-09T14:27:19.901Z,37.24
2022-08-09T14:30:34.905Z,36.94
2022-08-09T14:32:34.437Z,36.14
2022-08-09T14:35:06.373Z,36.14
2022-08-09T14:37:41.288Z,36.29
2022-08-09T14:40:19.419Z,35.69
2022-08-09T14:43:05.756Z,35.72
2022-08-09T14:46:55.117Z,35.74
2022-08-09T14:48:18.853Z,35.84
2022-08-09T14:50:47.419Z,36.05
2022-08-09T14:53:14.826Z,36.43
2022-08-09T14:55:50.299Z,35.84
2022-08-09T14:58:17.466Z,36.25
2022-08-09T15:00:48.641Z,36.22
2022-08-09T15:03:20.105Z,36.60
2022-08-09T15:05:50.486Z,36.32
2022-08-09T15:08:23.864Z,36.78
2022-08-09T15:11:00.469Z,36.13
2022-08-09T15:13:29.920Z,37.89
2022-08-09T15:16:15.076Z,37.74
2022-08-09T15:18:41.701Z,37.66
2022-08-09T15:21:55.400Z,37.88
2022-08-09T15:24:09.098Z,37.48
2022-08-09T15:26:45.927Z,37.19
2022-08-09T15:30:58.488Z,37.62
2022-08-09T15:31:59.654Z,38.60
2022-08-09T15:34:34.434Z,39.12
2022-08-09T15:37:04.092Z,39.11
2022-08-09T15:39:34.748Z,39.80
2022-08-09T15:42:10.441Z,39.69
2022-08-09T15:44:37.743Z,39.18
2022-08-09T15:47:05.344Z,39.23
2022-08-09T15:49:31.886Z,39.52
2022-08-09T15:52:04.438Z,40.22
2022-08-09T15:54:44.282Z,40.67
2022-08-09T15:57:13.356Z,41.07
2022-08-09T15:59:40.121Z,40.87
2022-08-09T16:02:08.959Z,41.12
2022-08-09T16:04:40.174Z,41.60
2022-08-09T16:07:09.695Z,41.66
2022-08-09T16:10:02.545Z,43.01
2022-08-09T16:12:26.328Z,43.64
2022-08-09T16:14:57.785Z,44.14
2022-08-09T16:17:24.371Z,44.42
2022-08-09T16:20:03.965Z,44.39
2022-08-09T16:22:32.648Z,44.87
2022-08-09T16:25:01.487Z,44.95
2022-08-09T16:27:29.641Z,45.14
2022-08-09T16:30:00.722Z,44.71
2022-08-09T16:32:53.444Z,45.01
2022-08-09T16:35:56.775Z,44.66
2022-08-09T16:38:09.443Z,44.43
2022-08-09T16:40:40.491Z,44.43
2022-08-09T16:43:08.263Z,43.97
2022-08-09T16:45:35.101Z,44.06
2022-08-09T16:48:39.466Z,44.13
2022-08-09T16:50:59.588Z,44.61
2022-08-09T16:53:34.716Z,44.47
2022-08-09T16:56:04.831Z,44.33
2022-08-09T16:58:36.120Z,44.21
2022-08-09T17:01:04.548Z,44.45
2022-08-09T17:03:31.636Z,44.29
2022-08-09T17:06:03.508Z,44.62
2022-08-09T17:08:42.959Z,44.44
2022-08-09T17:11:24.629Z,44.33
2022-08-09T17:14:01.621Z,44.02
2022-08-09T17:16:28.699Z,44.51
2022-08-09T17:18:55.365Z,44.81
2022-08-09T17:21:22.107Z,44.39
2022-08-09T17:24:20.835Z,44.40
2022-08-09T17:26:38.018Z,44.39
2022-08-09T17:29:05.203Z,43.09
2022-08-09T17:31:38.986Z,43.04
2022-08-09T17:34:20.356Z,43.97
2022-08-09T17:36:53.992Z,43.33
2022-08-09T17:39:24.907Z,43.40
2022-08-09T17:41:51.869Z,43.54
2022-08-09T17:44:47.146Z,42.92
2022-08-09T17:47:06.111Z,42.95
2022-08-09T17:49:37.350Z,43.16
2022-08-09T17:52:32.576Z,43.29
2022-08-09T17:54:59.272Z,43.33
2022-08-09T17:58:02.547Z,43.14
2022-08-09T18:00:13.545Z,42.87
2022-08-09T18:02:40.404Z,43.39
2022-08-09T18:05:17.058Z,43.45
2022-08-09T18:07:48.620Z,43.82
2022-08-09T18:10:15.423Z,43.92
2022-08-09T18:13:43.682Z,44.83
2022-08-09T18:16:05.371Z,44.83
2022-08-09T18:18:25.410Z,45.31
2022-08-09T18:21:10.479Z,46.02
2022-08-09T18:24:11.959Z,45.75
2022-08-09T18:26:25.970Z,45.67
2022-08-09T18:30:40.189Z,45.78
2022-08-09T18:31:51.263Z,46.45
2022-08-09T18:34:23.894Z,46.87
2022-08-09T18:36:50.952Z,47.02
2022-08-09T18:39:22.181Z,47.16
2022-08-09T18:41:53.000Z,46.97
2022-08-09T18:44:19.976Z,47.23
2022-08-09T18:47:06.466Z,46.78
2022-08-09T18:49:46.190Z,47.46
2022-08-09T18:52:14.350Z,47.18
2022-08-09T18:54:52.253Z,47.51
2022-08-09T18:57:22.116Z,47.26
2022-08-09T18:59:57.831Z,47.30
2022-08-09T19:02:31.747Z,48.23
2022-08-09T19:05:03.860Z,47.76
2022-08-09T19:07:51.543Z,48.30
2022-08-09T19:10:28.945Z,48.18
2022-08-09T19:13:23.632Z,47.99
2022-08-09T19:15:56.306Z,48.00
2022-08-09T19:18:33.098Z,48.54
2022-08-09T19:21:03.435Z,48.39
2022-08-09T19:24:31.471Z,48.29
2022-08-09T19:26:19.217Z,48.78
2022-08-09T19:28:57.318Z,48.89
2022-08-09T19:31:30.797Z,49.15
2022-08-09T19:34:22.341Z,49.29
2022-08-09T19:36:53.990Z,49.82
2022-08-09T19:39:28.872Z,49.61
2022-08-09T19:41:55.912Z,50.09
2022-08-09T19:44:23.081Z,50.42
2022-08-09T19:46:53.234Z,49.56
2022-08-09T19:50:08.425Z,49.96
2022-08-09T19:52:08.627Z,50.15
2022-08-09T19:54:35.600Z,50.24
2022-08-09T19:57:02.383Z,50.74
2022-08-09T19:59:59.735Z,50.84
2022-08-09T20:04:07.162Z,51.54
2022-08-09T20:05:10.299Z,51.23
2022-08-09T20:07:59.500Z,50.99
2022-08-09T20:10:36.503Z,51.19
2022-08-09T20:13:05.518Z,51.01
2022-08-09T20:16:34.089Z,51.82
2022-08-09T20:18:20.122Z,51.64
2022-08-09T20:20:50.340Z,51.51
2022-08-09T20:23:19.454Z,51.55
2022-08-09T20:25:52.049Z,51.44
2022-08-09T20:28:27.415Z,51.83
2022-08-09T20:31:01.003Z,52.19
2022-08-09T20:33:39.038Z,51.53
2022-08-09T20:36:08.443Z,51.79
2022-08-09T20:38:55.716Z,51.93
2022-08-09T20:41:29.247Z,51.83
2022-08-09T20:44:02.265Z,52.82
2022-08-09T20:46:42.728Z,52.87
2022-08-09T20:49:16.142Z,52.48
2022-08-09T20:51:44.268Z,52.68
2022-08-09T20:54:16.442Z,52.46
2022-08-09T20:56:49.537Z,53.48
2022-08-09T21:00:19.637Z,52.14
2022-08-09T21:02:08.087Z,52.49
2022-08-09T21:05:53.879Z,51.84
2022-08-09T21:07:21.288Z,52.01
2022-08-09T21:09:58.365Z,51.95
2022-08-09T21:15:17.493Z,53.10
2022-08-09T21:18:24.668Z,53.58
2022-08-09T21:20:37.094Z,52.74
2022-08-09T21:23:09.305Z,53.34
2022-08-09T21:25:55.815Z,53.71
2022-08-09T21:28:35.057Z,54.07
2022-08-09T21:31:17.856Z,55.02
2022-08-09T21:33:52.549Z,54.71
2022-08-09T21:36:25.749Z,55.30
2022-08-09T21:38:57.675Z,54.67
2022-08-09T21:42:06.100Z,55.30
2022-08-09T21:44:15.265Z,55.07
2022-08-09T21:46:59.711Z,54.68
2022-08-09T21:49:26.307Z,55.16
2022-08-09T21:51:53.496Z,54.78
2022-08-09T21:54:21.231Z,54.58
2022-08-09T21:56:54.409Z,54.45
2022-08-09T21:59:23.221Z,55.44
2022-08-09T22:01:59.448Z,55.26
2022-08-09T22:04:33.577Z,55.73
2022-08-09T22:07:35.472Z,55.62
2022-08-09T22:10:02.178Z,56.21
2022-08-09T22:12:30.470Z,55.76
2022-08-09T22:14:57.911Z,56.27
2022-08-09T22:17:24.501Z,56.79
2022-08-09T22:19:58.492Z,56.29
2022-08-09T22:22:28.929Z,56.65
2022-08-09T22:26:07.324Z,56.53
2022-08-09T22:27:42.165Z,56.79
2022-08-09T22:30:09.792Z,56.98
2022-08-09T22:32:37.588Z,57.28
2022-08-09T22:35:59.731Z,57.53
2022-08-09T22:38:06.587Z,57.34
2022-08-09T22:40:34.875Z,56.97
2022-08-09T22:43:01.459Z,57.90
2022-08-09T22:48:16.874Z,57.13
2022-08-09T22:48:35.522Z,57.93
2022-08-09T22:51:10.669Z,57.93
2022-08-09T22:53:58.090Z,57.71
2022-08-09T22:56:30.653Z,58.30
2022-08-09T22:59:05.736Z,58.22
2022-08-09T23:01:48.471Z,58.06
2022-08-09T23:04:15.113Z,58.14
2022-08-09T23:07:01.595Z,58.21
2022-08-09T23:09:28.129Z,58.16
2022-08-09T23:11:54.991Z,58.83
2022-08-09T23:14:30.254Z,58.39
2022-08-09T23:17:08.210Z,58.41
2022-08-09T23:20:06.771Z,58.43
2022-08-09T23:22:21.655Z,58.52
2022-08-09T23:24:48.837Z,58.59
2022-08-09T23:27:15.804Z,58.84
2022-08-09T23:29:42.468Z,58.94
2022-08-09T23:32:09.157Z,58.60
2022-08-09T23:34:36.718Z,58.58
2022-08-09T23:37:04.757Z,58.51
2022-08-09T23:39:31.797Z,58.86
2022-08-09T23:41:58.515Z,58.63
2022-08-09T23:44:25.075Z,58.97
2022-08-09T23:46:55.951Z,58.61
2022-08-09T23:49:25.250Z,59.33
2022-08-09T23:51:53.068Z,58.48
2022-08-09T23:54:20.345Z,59.47
2022-08-09T23:56:54.917Z,59.21
2022-08-09T23:59:24.266Z,59.07
